• Join FlightAware (Why Join?)
  • Login
  • US Flag 
07:15AM EST


 

Airport Tracker/Info


-or-


 

Live Flight TrackerFlight Track Log ✈ N76AD ✈ 11-May-2013 ✈ KGON - KFRG

Flight Track Log - Related Links

Times and Time Zones

All times are in EDT time to prevent confusion due to time zone crossing. See the N76AD flight status page for this flight to view local times or setup timezone preferences in your user account.

Time Position Orientation Groundspeed Altitude Reporting Facility
EDT Latitude Longitude Course Direction KTS MPH feet Rate Location/Type
01:31PM 41.3222 -72.0669 306° West 81 93 800  Level Boston Center
01:32PM 41.3328 -72.0864 306° West 92 106 1,300 780 Climbing Boston Center
01:33PM 41.3350 -72.1139 276° West 73 84 2,100 660 Climbing Boston Center
01:34PM 41.3372 -72.1414 276° West 74 85 2,700 540 Climbing Boston Center
01:35PM 41.3456 -72.1664 294° West 79 91 3,200 540 Climbing Boston Center
01:36PM 41.3456 -72.1939 270° West 71 82 3,800 540 Climbing Boston Center
01:37PM 41.3456 -72.2189 270° West 67 77 4,300 360 Climbing Boston Center
01:39PM 41.3500 -72.2833 275° West 74 85 5,200 300 Climbing New York TRACON
01:40PM 41.3333 -72.2833 180° South 72 83 5,500 360 Climbing New York TRACON
01:41PM 41.3167 -72.3000 217° Southwest 69 79 5,900 240 Climbing New York TRACON
01:42PM 41.3000 -72.3333 236° Southwest 78 90 6,000  Climbing New York TRACON
01:43PM 41.2833 -72.3500 217° Southwest 79 91 6,000 -60 Level New York TRACON
01:44PM 41.2667 -72.3667 217° Southwest 81 93 5,900  Descending New York TRACON
01:45PM 41.2500 -72.3833 217° Southwest 77 89 6,000  Climbing New York TRACON
01:46PM 41.2333 -72.4167 236° Southwest 86 99 5,900 -60 Descending New York TRACON
01:47PM 41.2167 -72.4333 217° Southwest 83 96 5,900  Level New York TRACON
01:48PM 41.2000 -72.4500 217° Southwest 82 94 5,900  Level New York TRACON
01:49PM 41.1833 -72.4667 217° Southwest 84 97 5,900  Level New York TRACON
01:50PM 41.1667 -72.4833 217° Southwest 81 93 5,900  Level New York TRACON
01:51PM 41.1667 -72.5167 270° West 81 93 5,900  Level New York TRACON
01:52PM 41.1500 -72.5333 217° Southwest 81 93 5,900  Level New York TRACON
01:53PM 41.1333 -72.5500 217° Southwest 83 96 5,900 -60 Level New York TRACON
01:54PM 41.1167 -72.5667 217° Southwest 82 94 5,800  Descending New York TRACON
01:55PM 41.1000 -72.5833 217° Southwest 75 86 5,900  Climbing New York TRACON
01:56PM 41.0833 -72.6167 236° Southwest 78 90 5,900  Level New York TRACON
01:57PM 41.0667 -72.6333 217° Southwest 79 91 5,900  Level New York TRACON
01:58PM 41.0500 -72.6333 180° South 81 93 5,900  Level New York TRACON
01:59PM 41.0333 -72.6667 236° Southwest 79 91 5,900  Level New York TRACON
02:00PM 41.0167 -72.6833 217° Southwest 74 85 5,900  Level New York TRACON
02:01PM 41.0167 -72.7000 270° West 79 91 5,900  Level New York TRACON
02:02PM 41.0000 -72.7167 217° Southwest 82 94 5,900  Level New York TRACON
02:03PM 40.9833 -72.7333 217° Southwest 81 93 5,900  Level New York TRACON
02:04PM 40.9667 -72.7667 236° Southwest 78 90 5,900  Level New York TRACON
02:05PM 40.9500 -72.7833 217° Southwest 74 85 5,900  Level New York TRACON
02:06PM 40.9333 -72.8000 217° Southwest 75 86 5,900  Level New York TRACON
02:07PM 40.9333 -72.8167 270° West 78 90 5,900  Level New York TRACON
02:08PM 40.9167 -72.8500 237° Southwest 80 92 5,900  Level New York TRACON
02:09PM 40.9167 -72.8833 270° West 76 87 5,900 -240 Level New York TRACON
02:10PM 40.9167 -72.9000 270° West 81 93 5,500 -480 Descending New York TRACON
02:11PM 40.9167 -72.9333 270° West 80 92 5,100 -360 Descending New York TRACON
02:12PM 40.9167 -72.9667 270° West 78 90 4,800 -300 Descending New York TRACON
02:13PM 40.9167 -72.9833 270° West 79 91 4,500 -360 Descending New York TRACON
02:14PM 40.9333 -73.0167 304° West 96 110 4,200 -360 Descending New York TRACON
02:15PM 40.9500 -73.0500 304° West 101 116 3,900 -300 Descending New York TRACON
02:16PM 40.9667 -73.0500 360° North 121 139 3,700 -240 Descending New York TRACON
02:17PM 41.0000 -73.0333 21° North 129 148 3,500 -240 Descending New York TRACON
02:18PM 41.0333 -73.0167 21° North 128 147 3,300 -240 Descending New York TRACON
02:18PM 41.0667 -73.0000 21° North 131 151 3,100 -360 Descending New York TRACON
02:19PM 41.1000 -72.9667 37° Northeast 135 155 2,700 -480 Descending New York TRACON
02:21PM 41.1167 -72.9167 66° East 140 161 2,200 -420 Descending New York TRACON
02:22PM 41.1500 -72.9167 360° North 130 150 1,900 -120 Descending New York TRACON
02:22PM 41.1833 -72.9333 339° North 107 123 2,000 -120 Climbing New York TRACON
02:23PM 41.1833 -72.9667 270° West 95 109 1,700 -300 Descending New York TRACON
02:24PM 41.1833 -73.0000 270° West 83 96 1,400 -180 Descending New York TRACON
02:25PM 41.1667 -73.0167 217° Southwest 69 79 1,400 -180 Level New York TRACON
02:26PM 41.1667 -73.0333 270° West 74 85 1,100 -300 Descending New York TRACON
02:27PM 41.1667 -73.0667 270° West 66 76 800 -240 Descending New York TRACON
02:28PM 41.1667 -73.0833 270° West 91 105 700 -120 Descending New York TRACON
02:30PM 41.1446 -73.1001 210° Southwest  Level Estimated
02:37PM 40.9953 -73.2131 210° Southwest  Level Estimated
02:38PM 40.9739 -73.2292 210° Southwest  Level Estimated